createdAt,value
2022-08-17T00:01:28.790Z,20.84
2022-08-17T00:04:34.169Z,20.79
2022-08-17T00:07:36.757Z,20.78
2022-08-17T00:10:42.187Z,20.76
2022-08-17T00:13:48.590Z,20.71
2022-08-17T00:16:57.597Z,20.71
2022-08-17T00:20:00.676Z,20.67
2022-08-17T00:23:06.051Z,20.75
2022-08-17T00:26:08.968Z,20.66
2022-08-17T00:29:14.929Z,20.56
2022-08-17T00:33:12.432Z,20.53
2022-08-17T00:35:47.168Z,20.53
2022-08-17T00:38:50.692Z,20.45
2022-08-17T00:41:53.496Z,20.43
2022-08-17T00:44:56.043Z,20.44
2022-08-17T00:47:58.869Z,20.37
2022-08-17T00:51:03.445Z,20.34
2022-08-17T00:54:13.401Z,20.31
2022-08-17T00:57:20.836Z,20.30
2022-08-17T01:00:28.225Z,20.28
2022-08-17T01:03:31.408Z,20.25
2022-08-17T01:06:34.544Z,20.22
2022-08-17T01:09:37.331Z,20.17
2022-08-17T01:12:40.253Z,20.18
2022-08-17T01:15:54.132Z,20.11
2022-08-17T01:18:59.725Z,20.13
2022-08-17T01:22:16.628Z,20.10
2022-08-17T01:25:20.810Z,20.05
2022-08-17T01:28:36.432Z,20.03
2022-08-17T01:31:51.423Z,20.00
2022-08-17T01:34:55.448Z,20.01
2022-08-17T01:37:58.386Z,19.92
2022-08-17T01:41:04.794Z,19.94
2022-08-17T01:44:08.401Z,19.94
2022-08-17T01:47:10.884Z,19.95
2022-08-17T01:50:17.607Z,19.89
2022-08-17T01:53:29.444Z,19.90
2022-08-17T01:56:34.478Z,19.81
2022-08-17T01:59:37.187Z,19.81
2022-08-17T02:02:40.818Z,19.78
2022-08-17T02:05:43.623Z,19.80
2022-08-17T02:09:01.909Z,19.77
2022-08-17T02:12:39.377Z,19.78
2022-08-17T02:15:30.131Z,19.76
2022-08-17T02:18:33.177Z,19.76
2022-08-17T02:21:37.426Z,19.75
2022-08-17T02:24:58.297Z,19.75
2022-08-17T02:28:03.861Z,19.72
2022-08-17T02:31:09.665Z,19.67
2022-08-17T02:34:12.702Z,19.62
2022-08-17T02:37:17.864Z,19.59
2022-08-17T02:40:36.397Z,19.54
2022-08-17T02:43:39.761Z,19.49
2022-08-17T02:46:42.297Z,19.46
2022-08-17T02:49:54.287Z,19.47
2022-08-17T02:53:01.725Z,19.47
2022-08-17T02:56:05.630Z,19.40
2022-08-17T02:59:08.375Z,19.42
2022-08-17T03:02:12.179Z,19.41
2022-08-17T03:05:18.330Z,19.36
2022-08-17T03:08:21.200Z,19.31
2022-08-17T03:11:23.754Z,19.29
2022-08-17T03:14:26.638Z,19.28
2022-08-17T03:17:29.204Z,19.22
2022-08-17T03:20:36.259Z,19.12
2022-08-17T03:23:42.257Z,19.13
2022-08-17T03:26:45.103Z,19.13
2022-08-17T03:29:47.670Z,19.14
2022-08-17T03:32:52.826Z,19.11
2022-08-17T03:35:55.857Z,19.07
2022-08-17T03:38:58.743Z,19.04
2022-08-17T03:42:09.116Z,19.01
2022-08-17T03:45:50.671Z,18.92
2022-08-17T03:49:15.135Z,18.90
2022-08-17T03:52:36.478Z,18.87
2022-08-17T03:55:57.418Z,18.89
2022-08-17T03:59:00.282Z,18.86
2022-08-17T04:02:27.401Z,18.87
2022-08-17T04:05:30.335Z,18.84
2022-08-17T04:08:37.206Z,18.84
2022-08-17T04:11:40.171Z,18.87
2022-08-17T04:14:52.098Z,18.91
2022-08-17T04:17:57.113Z,18.92
2022-08-17T04:21:02.488Z,18.93
2022-08-17T04:24:05.835Z,18.94
2022-08-17T04:27:08.480Z,18.96
2022-08-17T04:30:11.792Z,18.97
2022-08-17T04:33:19.281Z,19.01
2022-08-17T04:36:22.670Z,19.05
2022-08-17T04:39:26.317Z,19.12
2022-08-17T04:42:29.159Z,19.16
2022-08-17T04:45:32.126Z,19.22
2022-08-17T04:48:38.524Z,19.27
2022-08-17T04:51:54.676Z,19.29
2022-08-17T04:55:04.225Z,19.31
2022-08-17T04:58:07.473Z,19.41
2022-08-17T05:01:10.534Z,19.50
2022-08-17T05:04:34.603Z,19.61
2022-08-17T05:07:38.101Z,19.75
2022-08-17T05:10:45.457Z,19.85
2022-08-17T05:13:50.300Z,19.98
2022-08-17T05:16:53.033Z,20.06
2022-08-17T05:19:55.949Z,20.20
2022-08-17T05:23:00.974Z,20.29
2022-08-17T05:26:04.128Z,20.39
2022-08-17T05:29:09.570Z,20.49
2022-08-17T05:32:39.220Z,20.60
2022-08-17T05:35:38.522Z,20.74
2022-08-17T05:38:41.866Z,20.91
2022-08-17T05:41:46.694Z,21.11
2022-08-17T05:44:49.606Z,21.33
2022-08-17T05:47:52.191Z,21.54
2022-08-17T05:51:25.960Z,21.69
2022-08-17T05:54:49.858Z,21.90
2022-08-17T05:58:11.312Z,22.12
2022-08-17T06:01:17.068Z,22.37
2022-08-17T06:04:38.387Z,22.57
2022-08-17T06:07:43.930Z,22.78
2022-08-17T06:11:13.013Z,22.97
2022-08-17T06:14:24.794Z,23.11
2022-08-17T06:17:28.595Z,23.31
2022-08-17T06:20:59.262Z,23.44
2022-08-17T06:24:37.667Z,23.54
2022-08-17T06:27:46.547Z,23.67
2022-08-17T06:30:59.484Z,23.77
2022-08-17T06:34:06.655Z,23.91
2022-08-17T06:37:12.638Z,24.02
2022-08-17T06:40:26.514Z,24.14
2022-08-17T06:43:45.078Z,24.27
2022-08-17T06:47:00.240Z,24.39
2022-08-17T06:50:20.600Z,24.56
2022-08-17T06:53:38.307Z,24.74
2022-08-17T06:57:07.165Z,24.89
2022-08-17T07:00:22.299Z,25.06
2022-08-17T07:03:54.851Z,25.25
2022-08-17T07:07:01.694Z,25.38
2022-08-17T07:10:06.207Z,25.57
2022-08-17T07:13:25.462Z,25.75
2022-08-17T07:16:33.050Z,25.91
2022-08-17T07:19:40.581Z,26.09
2022-08-17T07:22:58.220Z,26.28
2022-08-17T07:26:07.635Z,26.42
2022-08-17T07:29:13.527Z,26.59
2022-08-17T07:32:19.780Z,26.69
2022-08-17T07:35:37.739Z,26.86
2022-08-17T07:38:57.301Z,26.99
2022-08-17T07:42:04.441Z,27.17
2022-08-17T07:45:27.885Z,27.36
2022-08-17T07:48:36.049Z,27.56
2022-08-17T07:51:43.294Z,27.72
2022-08-17T07:54:46.085Z,27.92
2022-08-17T07:57:56.876Z,28.05
2022-08-17T08:01:09.885Z,28.22
2022-08-17T08:04:43.149Z,28.41
2022-08-17T08:07:56.176Z,28.61
2022-08-17T08:11:00.880Z,28.84
2022-08-17T08:14:31.074Z,29.08
2022-08-17T08:17:36.759Z,29.22
2022-08-17T08:20:53.881Z,29.31
2022-08-17T08:24:16.501Z,29.45
2022-08-17T08:27:39.251Z,29.53
2022-08-17T08:30:47.164Z,29.69
2022-08-17T08:33:54.988Z,29.92
2022-08-17T08:37:20.620Z,30.09
2022-08-17T08:40:50.356Z,30.24
2022-08-17T08:44:07.520Z,30.35
2022-08-17T08:47:19.321Z,30.44
2022-08-17T08:50:38.776Z,30.63
2022-08-17T08:54:03.466Z,30.64
2022-08-17T08:57:26.862Z,30.53
2022-08-17T09:00:41.513Z,30.83
2022-08-17T09:04:11.821Z,30.92
2022-08-17T09:07:25.205Z,31.01
2022-08-17T09:10:58.364Z,30.88
2022-08-17T09:14:09.653Z,31.03
2022-08-17T09:17:35.780Z,31.36
2022-08-17T09:20:55.810Z,31.58
2022-08-17T09:24:09.847Z,31.77
2022-08-17T09:27:18.967Z,31.55
2022-08-17T09:30:29.969Z,31.74
2022-08-17T09:33:39.896Z,31.97
2022-08-17T09:36:52.223Z,31.83
2022-08-17T09:40:09.607Z,31.94
2022-08-17T09:43:19.546Z,32.23
2022-08-17T09:46:25.929Z,32.48
2022-08-17T09:49:35.388Z,32.60
2022-08-17T09:52:38.206Z,32.52
2022-08-17T09:55:59.941Z,32.78
2022-08-17T09:59:38.176Z,32.65
2022-08-17T10:02:48.472Z,32.75
2022-08-17T10:06:00.451Z,32.88
2022-08-17T10:09:09.779Z,33.07
2022-08-17T10:12:31.183Z,33.04
2022-08-17T10:15:46.859Z,32.97
2022-08-17T10:18:49.655Z,33.12
2022-08-17T10:22:32.697Z,33.37
2022-08-17T10:26:01.879Z,33.52
2022-08-17T10:29:12.548Z,33.45
2022-08-17T10:32:31.439Z,33.72
2022-08-17T10:36:07.466Z,33.95
2022-08-17T10:39:35.709Z,33.98
2022-08-17T10:43:01.010Z,34.25
2022-08-17T10:46:30.681Z,33.84
2022-08-17T10:49:36.775Z,34.13
2022-08-17T10:52:42.743Z,34.27
2022-08-17T10:56:14.074Z,34.21
2022-08-17T15:17:45.149Z,35.64
2022-08-17T15:20:50.175Z,35.57
2022-08-17T15:23:52.727Z,35.23
2022-08-17T15:26:55.653Z,35.30
2022-08-17T15:29:59.174Z,35.39
2022-08-17T15:33:02.727Z,35.31
2022-08-17T15:36:07.780Z,35.31
2022-08-17T15:39:10.951Z,35.33
2022-08-17T15:42:13.671Z,35.12
2022-08-17T15:45:18.648Z,35.24
2022-08-17T15:48:21.183Z,35.18
2022-08-17T15:51:32.782Z,35.08
2022-08-17T15:54:36.090Z,34.90
2022-08-17T15:57:40.814Z,34.83
2022-08-17T16:00:53.095Z,34.79
2022-08-17T16:04:26.488Z,34.70
2022-08-17T16:07:32.219Z,34.59
2022-08-17T16:10:36.194Z,34.65
2022-08-17T16:13:39.776Z,34.56
2022-08-17T16:16:42.588Z,34.50
2022-08-17T16:19:45.496Z,34.44
2022-08-17T16:22:50.002Z,34.37
2022-08-17T16:25:54.379Z,34.36
2022-08-17T16:28:59.024Z,34.25
2022-08-17T16:32:14.126Z,34.05
2022-08-17T16:35:18.415Z,34.05
2022-08-17T16:38:21.712Z,33.97
2022-08-17T16:41:43.289Z,33.88
2022-08-17T16:44:46.037Z,33.83
2022-08-17T16:47:50.114Z,33.70
2022-08-17T16:51:03.384Z,33.68
2022-08-17T16:54:08.305Z,33.66
2022-08-17T16:57:11.714Z,33.44
2022-08-17T17:00:16.187Z,33.28
2022-08-17T17:03:22.430Z,33.18
2022-08-17T17:06:41.146Z,33.11
2022-08-17T17:09:47.579Z,32.92
2022-08-17T17:13:03.989Z,32.83
2022-08-17T17:16:39.166Z,32.78
2022-08-17T17:19:51.742Z,32.58
2022-08-17T17:23:24.312Z,32.49
2022-08-17T17:26:48.443Z,32.26
2022-08-17T17:30:20.902Z,32.00
2022-08-17T17:33:36.942Z,31.81
2022-08-17T17:36:43.439Z,31.61
2022-08-17T17:39:56.383Z,31.47
2022-08-17T17:43:14.547Z,31.31
2022-08-17T17:46:29.135Z,31.09
2022-08-17T17:49:39.962Z,30.92
2022-08-17T17:53:03.341Z,30.73
2022-08-17T17:56:21.052Z,30.60
2022-08-17T18:00:03.434Z,30.31
2022-08-17T18:03:30.488Z,30.16
2022-08-17T18:07:02.150Z,29.99
2022-08-17T18:10:29.228Z,29.67
2022-08-17T18:14:01.316Z,29.48
2022-08-17T18:17:04.214Z,29.34
2022-08-17T18:20:07.500Z,29.14
2022-08-17T18:23:10.803Z,29.03
2022-08-17T18:26:13.793Z,28.85
2022-08-17T18:29:21.638Z,28.78
2022-08-17T18:32:40.059Z,28.61
2022-08-17T18:35:58.482Z,28.37
2022-08-17T18:39:23.791Z,28.23
2022-08-17T18:42:28.510Z,28.01
2022-08-17T18:45:41.046Z,27.88
2022-08-17T18:49:18.442Z,27.83
2022-08-17T18:52:24.516Z,27.73
2022-08-17T18:55:30.052Z,27.50
2022-08-17T18:58:33.255Z,27.48
2022-08-17T19:02:00.015Z,27.28
2022-08-17T19:05:13.550Z,27.08
2022-08-17T19:08:28.462Z,26.92
2022-08-17T19:11:34.999Z,26.82
2022-08-17T19:14:37.560Z,26.75
2022-08-17T19:17:46.666Z,26.56
2022-08-17T19:21:16.454Z,26.47
2022-08-17T19:24:22.160Z,26.36
2022-08-17T19:27:41.650Z,26.24
2022-08-17T19:30:45.130Z,26.18
2022-08-17T19:33:48.344Z,26.04
2022-08-17T19:37:00.446Z,25.95
2022-08-17T19:40:51.830Z,25.89
2022-08-17T19:44:07.066Z,25.76
2022-08-17T19:47:54.360Z,25.66
2022-08-17T19:51:02.838Z,25.56
2022-08-17T19:54:23.331Z,25.44
2022-08-17T19:57:34.551Z,25.37
2022-08-17T20:00:42.585Z,25.26
2022-08-17T20:03:51.773Z,25.22
2022-08-17T20:07:06.919Z,25.15
2022-08-17T20:10:17.748Z,25.09
2022-08-17T20:13:45.890Z,25.05
2022-08-17T20:16:48.971Z,24.99
2022-08-17T20:19:59.124Z,24.93
2022-08-17T20:23:12.130Z,24.80
2022-08-17T20:26:28.780Z,24.77
2022-08-17T20:29:40.319Z,24.71
2022-08-17T20:32:49.551Z,24.66
2022-08-17T20:36:13.488Z,24.58
2022-08-17T20:39:33.623Z,24.54
2022-08-17T20:42:37.775Z,24.42
2022-08-17T20:45:49.813Z,24.42
2022-08-17T20:49:01.002Z,24.32
2022-08-17T20:52:07.858Z,24.29
2022-08-17T20:55:51.585Z,24.23
2022-08-17T20:58:55.642Z,24.18
2022-08-17T21:02:13.833Z,24.05
2022-08-17T21:05:34.281Z,24.01
2022-08-17T21:08:53.245Z,23.93
2022-08-17T21:12:04.480Z,23.90
2022-08-17T21:15:31.055Z,23.87
2022-08-17T21:18:52.732Z,23.80
2022-08-17T21:22:11.395Z,23.72
2022-08-17T21:25:32.685Z,23.70
2022-08-17T21:29:00.076Z,23.60
2022-08-17T21:32:04.365Z,23.52
2022-08-17T21:35:11.241Z,23.44
2022-08-17T21:38:17.346Z,23.37
2022-08-17T21:41:27.425Z,23.41
2022-08-17T21:44:38.204Z,23.28
2022-08-17T21:47:43.694Z,23.20
2022-08-17T21:51:14.537Z,23.17
2022-08-17T21:54:29.880Z,23.11
2022-08-17T21:57:35.053Z,23.06
2022-08-17T22:00:41.006Z,22.99
2022-08-17T22:03:45.603Z,22.94
2022-08-17T22:06:52.683Z,22.85
2022-08-17T22:10:00.341Z,22.82
2022-08-17T22:13:22.190Z,22.82
2022-08-17T22:16:28.780Z,22.75
2022-08-17T22:19:34.808Z,22.71
2022-08-17T22:23:25.526Z,22.66
2022-08-17T22:27:02.344Z,22.63
2022-08-17T22:30:18.271Z,22.59
2022-08-17T22:33:33.400Z,22.51
2022-08-17T22:36:41.851Z,22.41
2022-08-17T22:39:44.804Z,22.37
2022-08-17T22:42:47.701Z,22.29
2022-08-17T22:45:53.300Z,22.29
2022-08-17T22:48:58.751Z,22.29
2022-08-17T22:52:04.615Z,22.26
2022-08-17T22:55:36.458Z,22.20
2022-08-17T22:59:17.553Z,22.19
2022-08-17T23:02:24.182Z,22.15
2022-08-17T23:05:26.909Z,22.17
2022-08-17T23:08:30.777Z,22.18
2022-08-17T23:11:49.380Z,22.18
2022-08-17T23:15:00.813Z,22.15
2022-08-17T23:18:04.799Z,22.16
2022-08-17T23:21:07.815Z,22.15
2022-08-17T23:24:11.909Z,22.16
2022-08-17T23:27:14.749Z,22.20
2022-08-17T23:30:17.953Z,22.19
2022-08-17T23:33:30.035Z,22.23
2022-08-17T23:36:32.568Z,22.16
2022-08-17T23:39:36.363Z,22.18
2022-08-17T23:42:43.371Z,22.20
2022-08-17T23:45:49.290Z,22.21
2022-08-17T23:48:53.544Z,22.23
2022-08-17T23:51:56.664Z,22.24
2022-08-17T23:54:59.431Z,22.25
2022-08-17T23:58:06.270Z,22.28
